• Join FlightAware (Why Join?)
  • Login
  • US Flag 
02:21AM EST


 

Airport Tracker/Info


-or-


 

Live Flight TrackerFlight Track Log ✈ AAL90 ✈ 22-Jul-2013 ✈ KORD - EGLL / LHR

Flight Track Log - Related Links

Times and Time Zones

All times are in EDT time to prevent confusion due to time zone crossing. See the AAL90 flight status page for this flight to view local times or setup timezone preferences in your user account.

Time Position Orientation Groundspeed Altitude Reporting Facility
EDT Latitude Longitude Course Direction KTS MPH feet Rate Location/Type
10:34AM 41.9880 -87.9160 319° Northwest 173 199 1,000  Level FlightAware
10:34AM 42.0060 -87.9360 320° Northwest 181 208 2,000 1,920 Climbing FlightAware
10:35AM 42.0260 -87.9530 328° Northwest 206 237 2,800 1,680 Climbing FlightAware
10:35AM 42.0510 -87.9610 347° North 235 270 3,500 1,740 Climbing FlightAware
10:36AM 42.0800 -87.9500 16° North 263 303 4,400 2,220 Climbing FlightAware
10:36AM 42.0930 -87.9240 56° Northeast 270 311 5,300 3,420 Climbing FlightAware
10:36AM 42.0980 -87.8880 79° East 266 306 6,700 3,780 Climbing FlightAware
10:37AM 42.1000 -87.8520 86° East 268 308 7,900 3,000 Climbing FlightAware
10:37AM 42.1000 -87.8380 90° East 273 314 8,200 2,520 Climbing FlightAware
10:37AM 42.1040 -87.7800 85° East 289 333 9,700 2,880 Climbing FlightAware
10:38AM 42.1190 -87.7080 74° East 300 345 11,700 2,760 Climbing FlightAware
10:39AM 42.1370 -87.6310 72° East 310 357 13,600 1,920 Climbing FlightAware
10:39AM 42.1570 -87.5490 72° East 357 411 14,500 1,080 Climbing FlightAware
10:40AM 42.1720 -87.4600 77° East 396 456 15,100 1,200 Climbing FlightAware
10:41AM 42.1790 -87.3460 85° East 397 457 16,200 1,980 Climbing FlightAware
10:41AM 42.1860 -87.2480 84° East 404 465 18,000 2,040 Climbing FlightAware
10:42AM 42.1930 -87.1470 85° East 432 497 18,900 1,500 Climbing FlightAware
10:43AM 42.2010 -87.0380 84° East 427 491 20,000 1,980 Climbing FlightAware
10:43AM 42.2060 -86.9360 86° East 428 493 21,600 2,280 Climbing FlightAware
10:44AM 42.2090 -86.8590 87° East 435 501 22,600 1,980 Climbing FlightAware
10:45AM 42.2150 -86.7370 86° East 449 517 24,000 1,920 Climbing FlightAware
10:45AM 42.2220 -86.6190 85° East 456 525 25,400 1,800 Climbing FlightAware
10:46AM 42.2270 -86.5010 87° East 468 539 26,600 1,560 Climbing FlightAware
10:47AM 42.2340 -86.3670 86° East 481 554 27,700 1,560 Climbing FlightAware
10:47AM 42.2400 -86.2430 86° East 487 560 28,900 1,500 Climbing FlightAware
10:48AM 42.2460 -86.1210 86° East 497 572 29,700 1,500 Climbing FlightAware
10:49AM 42.2520 -85.9800 87° East 500 575 31,000 1,920 Climbing FlightAware
10:49AM 42.2570 -85.8590 87° East 487 560 32,500 1,680 Climbing FlightAware
10:50AM 42.2620 -85.7480 86° East 491 565 33,200 1,320 Climbing FlightAware
10:51AM 42.2680 -85.6160 86° East 491 565 34,300 1,260 Climbing FlightAware
10:52AM 42.2730 -85.4920 87° East 494 568 35,000 480 Climbing FlightAware
10:52AM 42.2780 -85.3700 87° East 498 573 35,000  Level FlightAware
10:53AM 42.2820 -85.2580 87° East 496 571 35,000  Level FlightAware
10:54AM 42.2880 -85.0980 87° East 493 567 35,000  Level FlightAware
10:54AM 42.2880 -84.9500 90° East 489 563 35,000  Level FlightAware
10:55AM 42.3130 -84.8170 76° East 496 571 35,000  Level FlightAware
10:56AM 42.3380 -84.6970 74° East 498 573 35,000  Level FlightAware
10:56AM 42.3590 -84.5820 76° East 500 575 35,000  Level FlightAware
10:57AM 42.3850 -84.4490 75° East 504 580 35,000  Level FlightAware
10:58AM 42.4100 -84.3280 74° East 508 585 35,000  Level FlightAware
10:58AM 42.4310 -84.2300 74° East 510 587 35,000  Level FlightAware
10:59AM 42.4630 -84.0760 74° East 513 590 35,000  Level FlightAware
11:00AM 42.4860 -83.9640 74° East 514 592 35,000  Level FlightAware
11:00AM 42.5110 -83.8460 74° East 515 593 35,000  Level FlightAware
11:01AM 42.5380 -83.7140 74° East 513 590 35,000  Level FlightAware
11:02AM 42.5630 -83.5920 74° East 513 590 35,000  Level FlightAware
11:03AM 42.5930 -83.4470 74° East 513 590 35,000  Level FlightAware
11:03AM 42.6180 -83.3250 74° East 513 590 35,000  Level FlightAware
11:04AM 42.6450 -83.1870 75° East 512 589 35,000  Level FlightAware
11:05AM 42.6690 -83.0670 75° East 513 590 35,000  Level FlightAware
11:05AM 42.6930 -82.9490 74° East 514 592 35,000  Level FlightAware
11:06AM 42.7170 -82.8280 75° East 513 590 35,000  Level FlightAware
11:07AM 42.7420 -82.6990 75° East 512 589 35,000  Level FlightAware
11:07AM 42.7680 -82.5640 75° East 509 586 35,000  Level FlightAware
11:08AM 42.7890 -82.4580 75° East 506 582 35,000  Level FlightAware
11:09AM 42.8150 -82.3240 75° East 505 581 35,000  Level FlightAware
11:10AM 42.8480 -82.1480 76° East 505 581 35,000  Level FlightAware
11:10AM 42.8730 -82.0190 75° East 505 581 35,000  Level FlightAware
11:11AM 42.8960 -81.8940 76° East 506 582 35,000  Level FlightAware
11:12AM 42.9230 -81.7500 76° East 509 586 35,000  Level FlightAware
11:12AM 42.9420 -81.6440 76° East 510 587 35,000  Level FlightAware
11:13AM 42.9710 -81.4880 76° East 513 590 35,000  Level FlightAware
11:14AM 42.9910 -81.3770 76° East 515 593 35,000  Level FlightAware
11:14AM 43.0130 -81.2540 76° East 516 594 35,000  Level FlightAware
11:15AM 43.0420 -81.1410 71° East 519 597 35,000  Level FlightAware
11:16AM 43.1030 -80.9830 62° Northeast 520 598 35,000  Level FlightAware
11:17AM 43.1570 -80.8540 60° Northeast 521 600 35,000  Level FlightAware
11:17AM 43.1920 -80.7690 61° Northeast 520 598 35,000  Level FlightAware
11:18AM 43.2450 -80.6400 61° Northeast 521 600 35,000 180 Level FlightAware
11:19AM 43.2920 -80.5270 60° Northeast 516 594 35,300 540 Climbing FlightAware
11:19AM 43.3330 -80.4270 61° Northeast 516 594 35,700 600 Climbing FlightAware
11:20AM 43.3860 -80.2950 61° Northeast 521 600 36,100 600 Climbing FlightAware
11:21AM 43.4270 -80.1940 61° Northeast 525 604 36,500 540 Climbing FlightAware
11:21AM 43.4750 -80.0750 61° Northeast 529 609 36,800 300 Climbing FlightAware
11:22AM 43.5300 -79.9380 61° Northeast 528 608 37,000 120 Climbing FlightAware
11:23AM 43.5750 -79.8250 61° Northeast 523 602 37,000  Level FlightAware
11:23AM 43.6240 -79.7000 62° Northeast 520 598 37,000  Level FlightAware
11:24AM 43.6610 -79.5730 68° East 524 603 37,000  Level FlightAware
11:25AM 43.6880 -79.4400 74° East 528 608 37,000  Level FlightAware
11:25AM 43.7190 -79.3060 72° East 531 611 37,000  Level FlightAware
11:26AM 43.7520 -79.1810 70° East 533 613 37,000  Level FlightAware
11:27AM 43.7770 -79.0860 70° East 533 613 37,000  Level FlightAware
11:27AM 43.8110 -78.9510 71° East 534 615 37,000  Level FlightAware
11:28AM 43.8440 -78.8220 70° East 533 613 37,000  Level FlightAware
11:29AM 43.8760 -78.6890 72° East 531 611 37,000  Level FlightAware
11:29AM 43.9080 -78.5560 71° East 530 610 37,000  Level FlightAware
11:30AM 43.9420 -78.4180 71° East 530 610 37,000  Level FlightAware
11:31AM 43.9720 -78.2940 71° East 529 609 37,000  Level FlightAware
11:31AM 44.0050 -78.1570 71° East 529 609 37,000  Level FlightAware
11:32AM 44.0370 -78.0230 72° East 530 610 37,000  Level FlightAware
11:33AM 44.0710 -77.8800 72° East 530 610 37,000  Level FlightAware
11:33AM 44.1050 -77.7380 72° East 532 612 37,000  Level FlightAware
11:34AM 44.1350 -77.6120 72° East 533 613 37,000  Level FlightAware
11:35AM 44.1660 -77.4750 72° East 535 616 37,000  Level FlightAware
11:35AM 44.1950 -77.3530 72° East 535 616 37,000  Level FlightAware
11:36AM 44.2280 -77.2160 71° East 536 617 37,000  Level FlightAware
11:37AM 44.2600 -77.0770 72° East 537 618 37,000  Level FlightAware
11:38AM 44.2900 -76.9470 72° East 537 618 37,000  Level FlightAware
11:38AM 44.3250 -76.7980 72° East 538 619 37,000  Level FlightAware
11:39AM 44.3570 -76.6560 72° East 537 618 37,000  Level FlightAware
11:40AM 44.3830 -76.5410 72° East 537 618 37,000  Level FlightAware
11:40AM 44.4110 -76.4190 72° East 537 618 37,000  Level FlightAware
11:41AM 44.4420 -76.2810 72° East 537 618 37,000  Level FlightAware
11:42AM 44.4730 -76.1630 70° East 533 613 37,000  Level FlightAware
11:42AM 44.5170 -76.0210 66° East 531 611 37,000  Level FlightAware
11:43AM 44.5610 -75.8780 67° East 530 610 37,000  Level FlightAware
11:44AM 44.6030 -75.7440 66° East 528 608 37,000  Level FlightAware
11:44AM 44.6380 -75.6310 66° East 527 606 37,000  Level FlightAware
11:45AM 44.6780 -75.4830 69° East 526 605 37,000  Level FlightAware
11:46AM 44.7110 -75.3570 70° East 524 603 37,000  Level FlightAware
11:46AM 44.7450 -75.2270 70° East 521 600 37,000  Level FlightAware
11:47AM 44.7800 -75.0970 69° East 518 596 37,000  Level FlightAware
11:48AM 44.8220 -74.9390 69° East 514 592 37,000  Level FlightAware
11:49AM 44.8560 -74.8140 69° East 513 590 37,000  Level FlightAware
11:49AM 44.8850 -74.7030 70° East 513 590 37,000  Level FlightAware
11:50AM 44.9180 -74.5770 70° East 512 589 37,000  Level FlightAware
11:51AM 44.9610 -74.4160 69° East 512 589 37,000  Level FlightAware
11:51AM 44.9920 -74.2730 73° East 514 592 37,000  Level FlightAware
11:52AM 45.0170 -74.1380 75° East 514 592 37,000  Level FlightAware
11:53AM 45.0400 -74.0070 76° East 515 593 37,000  Level FlightAware
11:54AM 45.0660 -73.8640 76° East 516 594 37,000  Level FlightAware
11:54AM 45.0880 -73.7390 76° East 517 595 37,000  Level FlightAware
11:55AM 45.1130 -73.5960 76° East 518 596 37,000  Level FlightAware
11:56AM 45.1370 -73.4600 76° East 519 597 37,000  Level FlightAware
11:56AM 45.1630 -73.3100 76° East 519 597 37,000  Level FlightAware
11:57AM 45.1860 -73.1790 76° East 520 598 37,000  Level FlightAware
11:58AM 45.2090 -73.0420 77° East 520 598 37,000  Level FlightAware
11:58AM 45.2340 -72.8940 76° East 520 598 37,000  Level FlightAware
11:59AM 45.2570 -72.7560 77° East 519 597 37,000  Level FlightAware
12:00PM 45.2760 -72.6350 77° East 519 597 37,000  Level FlightAware
12:01PM 45.2880 -72.4810 84° East 518 596 37,000  Level FlightAware
12:01PM 45.2940 -72.3640 86° East 518 596 37,000  Level FlightAware
12:02PM 45.3030 -72.2010 85° East 518 596 37,000  Level FlightAware
12:03PM 45.3110 -72.0510 86° East 519 597 37,000  Level FlightAware
12:03PM 45.3190 -71.8990 86° East 520 598 37,000  Level FlightAware
12:04PM 45.3260 -71.7660 86° East 521 600 37,000  Level FlightAware
12:05PM 45.3310 -71.6540 86° East 522 601 37,000  Level FlightAware
12:05PM 45.3400 -71.4850 86° East 523 602 37,000  Level FlightAware
12:06PM 45.3460 -71.3480 86° East 525 604 37,000  Level FlightAware
12:07PM 45.3540 -71.1940 86° East 526 605 37,000  Level FlightAware
12:08PM 45.3620 -71.0510 85° East 526 605 37,000  Level FlightAware
12:08PM 45.3740 -70.9150 83° East 527 606 37,000  Level FlightAware
12:09PM 45.3880 -70.7680 82° East 527 606 37,000  Level FlightAware
12:10PM 45.4020 -70.6200 82° East 528 608 37,000  Level FlightAware
12:10PM 45.4130 -70.5010 82° East 531 611 37,000  Level FlightAware
12:11PM 45.4290 -70.3220 83° East 533 613 37,000  Level FlightAware
12:12PM 45.4420 -70.1750 83° East 534 615 37,000  Level FlightAware
12:13PM 45.4570 -70.0120 82° East 536 617 37,000  Level FlightAware
12:13PM 45.4720 -69.8360 83° East 538 619 37,000  Level FlightAware
12:14PM 45.4820 -69.7160 83° East 539 620 37,000  Level FlightAware
12:15PM 45.4970 -69.5370 83° East 541 623 37,000  Level FlightAware
12:15PM 45.5080 -69.4020 83° East 542 624 37,000  Level FlightAware
12:16PM 45.5190 -69.2660 83° East 543 625 37,000  Level FlightAware
12:17PM 45.5330 -69.0980 83° East 545 627 37,000  Level FlightAware
12:17PM 45.5420 -68.9760 84° East 546 628 37,000  Level FlightAware
12:18PM 45.5550 -68.8100 84° East 547 629 37,000  Level FlightAware
12:19PM 45.5650 -68.6810 84° East 548 631 37,000  Level FlightAware
12:19PM 45.5760 -68.5550 83° East 548 631 37,000  Level FlightAware
12:20PM 45.6020 -68.3760 78° East 550 633 37,000  Level FlightAware
12:21PM 45.6270 -68.2120 78° East 551 634 37,000  Level FlightAware
12:22PM 45.6510 -68.0540 78° East 551 634 37,000  Level FlightAware
12:23PM 45.6740 -67.9060 77° East 552 635 37,000  Level FlightAware
12:23PM 45.7040 -67.7080 78° East 553 636 37,000  Level FlightAware
12:24PM 45.7280 -67.5480 78° East 553 636 37,000  Level FlightAware
12:25PM 45.7490 -67.4030 78° East 554 638 37,000  Level FlightAware
12:26PM 45.7730 -67.2410 78° East 555 639 37,000  Level FlightAware
12:26PM 45.7940 -67.0970 78° East 557 641 37,000  Level FlightAware
12:27PM 45.8170 -66.9350 78° East 558 642 37,000  Level FlightAware
12:28PM 45.8370 -66.7910 79° East 556 640 37,000  Level FlightAware
12:28PM 45.8570 -66.6490 79° East 554 638 37,000  Level FlightAware
12:29PM 45.8800 -66.4810 79° East 555 639 37,000  Level FlightAware
12:30PM 45.9050 -66.3160 78° East 556 640 37,000  Level FlightAware
12:30PM 45.9260 -66.1930 76° East 555 639 37,000  Level FlightAware
12:31PM 45.9530 -66.0330 76° East 556 640 37,000  Level FlightAware
12:32PM 45.9770 -65.8920 76° East 555 639 37,000  Level FlightAware
12:32PM 45.9970 -65.7680 77° East 553 636 37,000  Level FlightAware
12:33PM 46.0180 -65.6310 78° East 552 635 37,000  Level FlightAware
12:34PM 46.0480 -65.4430 77° East 555 639 37,000  Level FlightAware
12:35PM 46.1000 -65.1040 77° East 555 639 37,000  Level FlightAware
12:36PM 46.1190 -64.9870 77° East 555 639 37,000  Level FlightAware
12:37PM 46.1540 -64.7690 77° East 555 639 37,000  Level FlightAware
12:38PM 46.1800 -64.5820 79° East 557 641 37,000  Level FlightAware
12:39PM 46.2030 -64.4400 77° East 557 641 37,000  Level FlightAware
12:39PM 46.2210 -64.3260 77° East 557 641 37,000  Level FlightAware
12:40PM 46.2840 -64.1320 65° Northeast 560 644 37,000  Level FlightAware
12:41PM 46.3100 -64.0240 71° East 560 644 37,000  Level FlightAware
12:41PM 46.3440 -63.8790 71° East 560 644 37,000  Level FlightAware
12:42PM 46.3680 -63.7760 71° East 560 644 37,000  Level FlightAware
12:43PM 46.4020 -63.6340 71° East 560 644 37,000  Level FlightAware
12:44PM 46.4360 -63.4920 71° East 560 644 37,000  Level FlightAware
12:44PM 46.4630 -63.3780 71° East 560 644 37,000  Level FlightAware
12:45PM 46.4970 -63.2350 71° East 560 644 37,000  Level FlightAware
12:46PM 46.5520 -62.9100 76° East 567 652 37,000  Level FlightAware
12:46PM 46.5800 -62.7800 73° East 567 652 37,000  Level FlightAware
12:47PM 46.6170 -62.6030 73° East 568 654 37,000  Level FlightAware
12:48PM 46.6500 -62.4460 73° East 569 655 37,000  Level FlightAware
12:48PM 46.6810 -62.2970 73° East 570 656 37,000  Level FlightAware
12:49PM 46.7130 -62.1440 73° East 570 656 37,000  Level FlightAware
12:50PM 46.7460 -61.9820 73° East 572 658 37,000  Level FlightAware
12:51PM 46.7780 -61.8250 73° East 572 658 37,000  Level FlightAware
12:51PM 46.8070 -61.6780 74° East 573 659 37,000  Level FlightAware
12:52PM 46.8390 -61.5220 73° East 574 661 37,000  Level FlightAware
12:53PM 46.8710 -61.3590 74° East 574 661 37,000  Level FlightAware
12:53PM 46.9010 -61.2090 74° East 574 661 37,000  Level FlightAware
12:54PM 46.9320 -61.0480 74° East 575 662 37,000  Level FlightAware
12:55PM 46.9620 -60.8960 74° East 575 662 37,000  Level FlightAware
12:55PM 46.9900 -60.7490 74° East 576 663 37,000  Level FlightAware
12:56PM 47.0220 -60.5830 74° East 578 665 37,000  Level FlightAware
12:57PM 47.0500 -60.4350 74° East 579 666 37,000  Level FlightAware
12:58PM 47.0820 -60.2660 74° East 579 666 37,000  Level FlightAware
12:58PM 47.1130 -60.1000 75° East 580 667 37,000  Level FlightAware
12:59PM 47.1410 -59.9490 75° East 580 667 37,000  Level FlightAware
01:00PM 47.1720 -59.7820 75° East 580 667 37,000  Level FlightAware
01:00PM 47.1990 -59.6370 75° East 580 667 37,000  Level FlightAware
01:01PM 47.2300 -59.4670 75° East 580 667 37,000  Level FlightAware
01:02PM 47.2600 -59.3010 75° East 580 667 37,000  Level FlightAware
01:03PM 47.2950 -59.1000 76° East 580 667 37,000  Level FlightAware
01:03PM 47.3230 -58.9460 75° East 581 669 37,000  Level FlightAware
01:04PM 47.3520 -58.7760 76° East 583 671 37,000  Level FlightAware
01:05PM 47.3820 -58.6080 75° East 584 672 37,000  Level FlightAware
01:06PM 47.4170 -58.4040 76° East 584 672 37,000  Level FlightAware
01:06PM 47.4440 -58.2450 76° East 585 673 37,000  Level FlightAware
01:07PM 47.4760 -58.0560 76° East 586 674 37,000  Level FlightAware
01:08PM 47.5050 -57.8820 76° East 586 674 37,000  Level FlightAware
01:09PM 47.5300 -57.7290 76° East 586 674 37,000  Level FlightAware
01:09PM 47.5550 -57.5870 75° East 587 676 37,000  Level FlightAware
01:10PM 47.5970 -57.4080 71° East 588 677 37,000  Level FlightAware
01:11PM 47.6390 -57.2330 70° East 588 677 37,000  Level FlightAware
01:12PM 47.6910 -57.0010 72° East 589 678 37,000  Level FlightAware
01:12PM 47.7250 -56.8490 72° East 590 679 37,000  Level FlightAware
01:13PM 47.7630 -56.6750 72° East 591 680 37,000  Level FlightAware
01:14PM 47.7960 -56.5210 72° East 592 681 37,000  Level FlightAware
01:14PM 47.8290 -56.3680 72° East 593 682 37,000  Level FlightAware
01:15PM 47.8670 -56.1900 72° East 593 682 37,000  Level FlightAware
01:16PM 47.9000 -56.0340 72° East 594 684 37,000  Level FlightAware
01:17PM 47.9330 -55.8780 72° East 594 684 37,000  Level FlightAware
01:17PM 47.9650 -55.7240 73° East 594 684 37,000  Level FlightAware
01:18PM 48.0020 -55.5470 73° East 594 684 37,000  Level FlightAware
01:19PM 48.0310 -55.4090 73° East 594 684 37,000  Level FlightAware
01:19PM 48.0700 -55.2160 73° East 593 682 37,000  Level FlightAware
01:20PM 48.1020 -55.0580 73° East 592 681 37,000  Level FlightAware
01:21PM 48.1380 -54.8810 73° East 591 680 37,000  Level FlightAware
01:21PM 48.1650 -54.7440 73° East 590 679 37,000  Level FlightAware
01:22PM 48.1970 -54.5880 73° East 590 679 37,000  Level FlightAware
01:23PM 48.2310 -54.4130 74° East 589 678 37,000  Level FlightAware
01:23PM 48.2610 -54.2570 74° East 589 678 37,000  Level FlightAware
01:24PM 48.2950 -54.0820 74° East 586 674 37,000  Level FlightAware
01:25PM 48.3290 -53.9080 74° East 584 672 37,000  Level FlightAware
01:25PM 48.3470 -53.8120 74° East 584 672 37,000  Level FlightAware
01:26PM 48.3770 -53.6530 74° East 582 670 37,000  Level FlightAware
01:27PM 48.4060 -53.5000 74° East 582 670 37,000  Level FlightAware
01:27PM 48.4290 -53.3810 74° East 579 666 37,000  Level FlightAware
01:28PM 48.4540 -53.2460 74° East 579 666 37,000  Level FlightAware
01:28PM 48.4790 -53.1110 74° East 578 665 37,000  Level FlightAware
01:29PM 48.5100 -52.9400 75° East 575 662 37,000  Level FlightAware
01:30PM 48.5390 -52.7820 74° East 574 661 37,000  Level FlightAware
01:31PM 48.5710 -52.6030 75° East 571 657 37,000  Level FlightAware
01:31PM 48.5950 -52.4690 75° East 571 657 37,000  Level FlightAware
01:32PM 48.6270 -52.2920 75° East 572 658 37,000  Level FlightAware
01:33PM 48.6530 -52.1420 75° East 571 657 37,000  Level FlightAware
01:33PM 48.6760 -52.0070 75° East 571 657 37,000  Level FlightAware
01:34PM 48.7060 -51.8340 75° East 570 656 37,000  Level FlightAware
01:35PM 48.7330 -51.6760 75° East 570 656 37,000  Level FlightAware
01:35PM 48.7620 -51.5020 76° East 570 656 37,000  Level FlightAware
01:36PM 48.7880 -51.3500 75° East 571 657 37,000  Level FlightAware
01:37PM 48.8150 -51.1880 76° East 570 656 37,000  Level FlightAware
01:37PM 48.8400 -51.0330 76° East 570 656 37,000  Level FlightAware
01:38PM 48.8710 -50.8400 76° East 569 655 37,000  Level FlightAware
01:39PM 48.9060 -50.6200 76° East 569 655 37,000  Level FlightAware
01:40PM 48.9220 -50.5240 76° East 569 655 37,000  Level FlightAware
01:40PM 48.9470 -50.3630 77° East 569 655 37,000  Level FlightAware
01:41PM 48.9710 -50.2110 76° East 568 654 37,000  Level FlightAware
01:42PM 48.9910 -50.0920 76° East 568 654 37,000  Level FlightAware
01:42PM 49.0100 -49.9730 76° East 568 654 37,000  Level FlightAware
01:43PM 49.0300 -49.8510 76° East 568 654 37,000  Level FlightAware
01:44PM 49.0710 -49.6020 76° East 568 654 37,000  Level FlightAware
01:45PM 49.0900 -49.4830 76° East 568 654 37,000  Level FlightAware
01:46PM 49.1160 -49.3240 76° East 568 654 37,000  Level FlightAware
01:46PM 49.1350 -49.2050 76° East 568 654 37,000  Level FlightAware
01:47PM 49.1680 -49.0060 76° East 568 654 37,000  Level FlightAware
01:48PM 49.1940 -48.8440 76° East 568 654 37,000  Level FlightAware
01:49PM 49.2140 -48.7210 76° East 568 654 37,000  Level FlightAware
01:49PM 49.2410 -48.5590 76° East 568 654 37,000  Level FlightAware
01:50PM 49.2600 -48.4390 76° East 568 654 37,000  Level FlightAware
01:53PM 49.3174 -47.8820 81° East  Level FlightAware Approximate
01:54PM 49.3393 -47.6618 81° East  Level FlightAware Approximate
01:55PM 49.3608 -47.4414 81° East  Level FlightAware Approximate
01:56PM 49.3819 -47.2208 82° East  Level FlightAware Approximate
01:57PM 49.4026 -47.0000 82° East  Level FlightAware Approximate
01:58PM 49.4228 -46.7791 82° East  Level FlightAware Approximate
01:59PM 49.4427 -46.5579 82° East  Level FlightAware Approximate
02:00PM 49.4621 -46.3366 82° East  Level FlightAware Approximate
02:01PM 49.4855 -46.1153 80° East  Level FlightAware Approximate
02:02PM 49.5099 -45.8950 80° East  Level FlightAware Approximate
02:03PM 49.5338 -45.6744 80° East  Level FlightAware Approximate
02:04PM 49.5574 -45.4536 81° East  Level FlightAware Approximate
02:05PM 49.5805 -45.2326 81° East  Level FlightAware Approximate
02:06PM 49.6031 -45.0114 81° East  Level FlightAware Approximate
02:07PM 49.6254 -44.7900 81° East  Level FlightAware Approximate
02:08PM 49.6472 -44.5683 81° East  Level FlightAware Approximate
02:09PM 49.6687 -44.3465 81° East  Level FlightAware Approximate
02:10PM 49.6897 -44.1245 82° East  Level FlightAware Approximate
02:11PM 49.7102 -43.9023 82° East  Level FlightAware Approximate
02:12PM 49.7304 -43.6799 82° East  Level FlightAware Approximate
02:13PM 49.7501 -43.4574 82° East  Level FlightAware Approximate
02:14PM 49.7694 -43.2346 82° East  Level FlightAware Approximate
02:15PM 49.7882 -43.0117 82° East  Level FlightAware Approximate
02:16PM 49.8067 -42.7886 83° East  Level FlightAware Approximate
02:17PM 49.8247 -42.5653 83° East  Level FlightAware Approximate
02:18PM 49.8423 -42.3419 83° East  Level FlightAware Approximate
02:19PM 49.8594 -42.1183 83° East  Level FlightAware Approximate
02:20PM 49.8761 -41.8946 83° East  Level FlightAware Approximate
02:21PM 49.8924 -41.6707 83° East  Level FlightAware Approximate
02:22PM 49.9082 -41.4467 84° East  Level FlightAware Approximate
02:23PM 49.9237 -41.2225 84° East  Level FlightAware Approximate
02:24PM 49.9386 -40.9981 84° East  Level FlightAware Approximate
02:25PM 49.9532 -40.7737 84° East  Level FlightAware Approximate
02:26PM 49.9673 -40.5491 84° East  Level FlightAware Approximate
02:27PM 49.9810 -40.3249 85° East  Level FlightAware Approximate
02:28PM 49.9942 -40.1006 85° East  Level FlightAware Approximate
02:29PM 50.0176 -39.8787 77° East  Level FlightAware Approximate
02:30PM 50.0492 -39.6587 77° East  Level FlightAware Approximate
02:31PM 50.0804 -39.4383 77° East  Level FlightAware Approximate
02:32PM 50.1111 -39.2177 78° East  Level FlightAware Approximate
02:33PM 50.1414 -38.9968 78° East  Level FlightAware Approximate
02:34PM 50.1714 -38.7757 78° East  Level FlightAware Approximate
02:35PM 50.2009 -38.5542 78° East  Level FlightAware Approximate
02:36PM 50.2299 -38.3325 78° East  Level FlightAware Approximate
02:37PM 50.2586 -38.1105 79° East  Level FlightAware Approximate
02:38PM 50.2868 -37.8883 79° East  Level FlightAware Approximate
02:39PM 50.3146 -37.6658 79° East  Level FlightAware Approximate
02:40PM 50.3420 -37.4430 79° East  Level FlightAware Approximate
02:41PM 50.3689 -37.2200 79° East  Level FlightAware Approximate
02:42PM 50.3955 -36.9967 79° East  Level FlightAware Approximate
02:43PM 50.4216 -36.7732 80° East  Level FlightAware Approximate
02:44PM 50.4472 -36.5494 80° East  Level FlightAware Approximate
02:45PM 50.4725 -36.3254 80° East  Level FlightAware Approximate
02:46PM 50.4973 -36.1012 80° East  Level FlightAware Approximate
02:47PM 50.5216 -35.8767 80° East  Level FlightAware Approximate
02:48PM 50.5456 -35.6520 80° East  Level FlightAware Approximate
02:49PM 50.5691 -35.4270 81° East  Level FlightAware Approximate
02:50PM 50.5922 -35.2019 81° East  Level FlightAware Approximate
02:51PM 50.6148 -34.9765 81° East  Level FlightAware Approximate
02:52PM 50.6370 -34.7509 81° East  Level FlightAware Approximate
02:53PM 50.6588 -34.5251 81° East  Level FlightAware Approximate
02:54PM 50.6801 -34.2991 81° East  Level FlightAware Approximate
02:55PM 50.7010 -34.0729 82° East  Level FlightAware Approximate
02:56PM 50.7215 -33.8465 82° East  Level FlightAware Approximate
02:57PM 50.7415 -33.6199 82° East  Level FlightAware Approximate
02:58PM 50.7611 -33.3931 82° East  Level FlightAware Approximate
02:59PM 50.7802 -33.1661 82° East  Level FlightAware Approximate
03:00PM 50.7989 -32.9389 82° East  Level FlightAware Approximate
03:01PM 50.8172 -32.7115 83° East  Level FlightAware Approximate
03:02PM 50.8350 -32.4840 83° East  Level FlightAware Approximate
03:03PM 50.8524 -32.2563 83° East  Level FlightAware Approximate
03:04PM 50.8693 -32.0284 83° East  Level FlightAware Approximate
03:05PM 50.8858 -31.8004 83° East  Level FlightAware Approximate
03:06PM 50.9017 -31.5733 84° East  Level FlightAware Approximate
03:07PM 50.9173 -31.3461 84° East  Level FlightAware Approximate
03:08PM 50.9324 -31.1187 84° East  Level FlightAware Approximate
03:09PM 50.9470 -30.8912 84° East  Level FlightAware Approximate
03:10PM 50.9612 -30.6635 84° East  Level FlightAware Approximate
03:11PM 50.9749 -30.4357 84° East  Level FlightAware Approximate
03:12PM 50.9883 -30.2078 85° East  Level FlightAware Approximate
03:13PM 51.0009 -29.9797 86° East  Level FlightAware Approximate
03:14PM 51.0104 -29.7511 86° East  Level FlightAware Approximate
03:15PM 51.0195 -29.5225 86° East  Level FlightAware Approximate
03:16PM 51.0281 -29.2938 86° East  Level FlightAware Approximate
03:17PM 51.0362 -29.0650 87° East  Level FlightAware Approximate
03:18PM 51.0440 -28.8361 87° East  Level FlightAware Approximate
03:19PM 51.0513 -28.6071 87° East  Level FlightAware Approximate
03:20PM 51.0581 -28.3781 87° East  Level FlightAware Approximate
03:21PM 51.0645 -28.1490 87° East  Level FlightAware Approximate
03:22PM 51.0704 -27.9199 88° East  Level FlightAware Approximate
03:23PM 51.0759 -27.6907 88° East  Level FlightAware Approximate
03:24PM 51.0809 -27.4614 88° East  Level FlightAware Approximate
03:25PM 51.0855 -27.2321 88° East  Level FlightAware Approximate
03:26PM 51.0897 -27.0028 88° East  Level FlightAware Approximate
03:27PM 51.0934 -26.7734 88° East  Level FlightAware Approximate
03:28PM 51.0966 -26.5440 89° East  Level FlightAware Approximate
03:29PM 51.0994 -26.3145 89° East  Level FlightAware Approximate
03:30PM 51.1018 -26.0850 89° East  Level FlightAware Approximate
03:31PM 51.1037 -25.8555 89° East  Level FlightAware Approximate
03:32PM 51.1051 -25.6260 89° East  Level FlightAware Approximate
03:33PM 51.1061 -25.3965 90° East  Level FlightAware Approximate
03:34PM 51.1067 -25.1670 90° East  Level FlightAware Approximate
03:35PM 51.1068 -24.9374 90° East  Level FlightAware Approximate
03:36PM 51.1064 -24.7079 90° East  Level FlightAware Approximate
03:37PM 51.1056 -24.4784 90° East  Level FlightAware Approximate
03:38PM 51.1044 -24.2488 90° East  Level FlightAware Approximate
03:39PM 51.1027 -24.0193 91° East  Level FlightAware Approximate
03:40PM 51.1005 -23.7899 91° East  Level FlightAware Approximate
03:41PM 51.0979 -23.5604 91° East  Level FlightAware Approximate
03:42PM 51.0949 -23.3310 91° East  Level FlightAware Approximate
03:43PM 51.0914 -23.1016 91° East  Level FlightAware Approximate
03:44PM 51.0875 -22.8722 91° East  Level FlightAware Approximate
03:45PM 51.0831 -22.6429 92° East  Level FlightAware Approximate
03:46PM 51.0783 -22.4136 92° East  Level FlightAware Approximate
03:47PM 51.0730 -22.1844 92° East  Level FlightAware Approximate
03:48PM 51.0672 -21.9552 92° East  Level FlightAware Approximate
03:49PM 51.0611 -21.7261 92° East  Level FlightAware Approximate
03:50PM 51.0544 -21.4970 93° East  Level FlightAware Approximate
03:51PM 51.0474 -21.2692 93° East  Level FlightAware Approximate
03:52PM 51.0399 -21.0414 93° East  Level FlightAware Approximate
03:53PM 51.0320 -20.8136 93° East  Level FlightAware Approximate
03:54PM 51.0236 -20.5860 93° East  Level FlightAware Approximate
03:55PM 51.0148 -20.3584 93° East  Level FlightAware Approximate
03:56PM 51.0055 -20.1310 94° East  Level FlightAware Approximate
03:57PM 51.0110 -19.9049 80° East  Level FlightAware Approximate
03:58PM 51.0365 -19.6806 80° East  Level FlightAware Approximate
03:59PM 51.0616 -19.4559 80° East  Level FlightAware Approximate
04:00PM 51.0863 -19.2311 80° East  Level FlightAware Approximate
04:01PM 51.1106 -19.0060 80° East  Level FlightAware Approximate
04:02PM 51.1344 -18.7807 80° East  Level FlightAware Approximate
04:03PM 51.1578 -18.5551 81° East  Level FlightAware Approximate
04:04PM 51.1808 -18.3293 81° East  Level FlightAware Approximate
04:05PM 51.2033 -18.1033 81° East  Level FlightAware Approximate
04:06PM 51.2254 -17.8771 81° East  Level FlightAware Approximate
04:07PM 51.2470 -17.6506 81° East  Level FlightAware Approximate
04:08PM 51.2682 -17.4240 81° East  Level FlightAware Approximate
04:09PM 51.2890 -17.1971 82° East  Level FlightAware Approximate
04:10PM 51.3093 -16.9701 82° East  Level FlightAware Approximate
04:11PM 51.3292 -16.7428 82° East  Level FlightAware Approximate
04:12PM 51.3487 -16.5154 82° East  Level FlightAware Approximate
04:13PM 51.3677 -16.2877 82° East  Level FlightAware Approximate
04:14PM 51.3862 -16.0599 82° East  Level FlightAware Approximate
04:15PM 51.4044 -15.8318 83° East  Level FlightAware Approximate
04:16PM 51.4221 -15.6036 83° East  Level FlightAware Approximate
04:17PM 51.4393 -15.3753 83° East  Level FlightAware Approximate
04:18PM 51.4561 -15.1467 83° East  Level FlightAware Approximate
04:19PM 51.4713 -14.9178 85° East  Level FlightAware Approximate
04:20PM 51.4842 -14.6885 83° East  Level FlightAware Approximate
04:21PM 51.5015 -14.4598 83° East  Level FlightAware Approximate
04:22PM 51.5183 -14.2310 83° East  Level FlightAware Approximate
04:23PM 51.5346 -14.0019 83° East  Level FlightAware Approximate
04:24PM 51.5505 -13.7728 84° East  Level FlightAware Approximate
04:25PM 51.5660 -13.5434 84° East  Level FlightAware Approximate
04:26PM 51.5797 -13.3137 84° East  Level FlightAware Approximate
04:27PM 51.5929 -13.0838 85° East  Level FlightAware Approximate
04:28PM 51.6057 -12.8539 85° East  Level FlightAware Approximate
04:29PM 51.6180 -12.6238 85° East  Level FlightAware Approximate
04:29PM 51.4410 -11.3260 85° East 465 535 37,000  Level FlightAware
04:30PM 51.6298 -12.3935 85° East  Level FlightAware Approximate
04:30PM 51.4530 -11.1960 82° East 463 533 37,000  Level FlightAware
04:31PM 51.4700 -11.0180 81° East 460 529 37,000  Level FlightAware
04:31PM 51.4790 -10.9290 81° East 458 527 37,000  Level FlightAware
04:32PM 51.4940 -10.7660 82° East 456 525 37,000  Level FlightAware
04:33PM 51.5040 -10.6600 81° East 456 525 37,000  Level FlightAware
04:33PM 51.5180 -10.5030 82° East 456 525 37,000  Level FlightAware
04:34PM 51.5300 -10.3670 82° East 457 526 37,000  Level FlightAware
04:35PM 51.5440 -10.2110 82° East 458 527 37,000  Level FlightAware
04:35PM 51.5570 -10.0640 82° East 458 527 37,000  Level FlightAware
04:36PM 51.5710 -9.9000 82° East 457 526 37,000  Level FlightAware
04:37PM 51.5820 -9.7740 82° East 458 527 37,000  Level FlightAware
04:38PM 51.5930 -9.6360 83° East 458 527 37,000  Level FlightAware
04:38PM 51.6040 -9.5060 82° East 457 526 37,000  Level FlightAware
04:39PM 51.6160 -9.3520 83° East 458 527 37,000  Level FlightAware
04:40PM 51.6230 -9.2630 83° East 459 528 37,000  Level FlightAware
04:40PM 51.6380 -9.0760 83° East 460 529 37,000  Level FlightAware
04:41PM 51.6259 -8.8810 83° East 462 532 37,000  Level FlightAware UK
04:41PM 51.6490 -8.9250 83° East 460 529 37,000  Level FlightAware
04:42PM 51.6600 -8.7910 82° East 462 532 37,000  Level FlightAware
04:42PM 51.6700 -8.6460 84° East 462 532 37,000  Level FlightAware
04:43PM 51.6800 -8.5160 83° East 462 532 37,000  Level FlightAware
04:44PM 51.6641 -8.3705 83° East 464 534 37,000  Level FlightAware UK
04:44PM 51.6900 -8.3720 83° East 462 532 37,000  Level FlightAware
04:44PM 51.7000 -8.2340 83° East 462 532 37,000  Level FlightAware
04:45PM 51.7080 -8.1120 84° East 461 531 37,000  Level FlightAware
04:46PM 51.6941 -7.9602 84° East 468 539 37,000  Level FlightAware UK
04:46PM 51.7170 -7.9820 84° East 461 531 37,000  Level FlightAware
04:46PM 51.7280 -7.8300 83° East 460 529 37,000  Level FlightAware
04:47PM 51.7148 -7.6536 83° East 462 532 37,000  Level FlightAware UK
04:47PM 51.7370 -7.6810 83° East 460 529 37,000  Level FlightAware
04:48PM 51.7470 -7.5390 83° East 460 529 37,000  Level FlightAware
04:49PM 51.7560 -7.3900 84° East 460 529 37,000  Level FlightAware
04:49PM 51.7408 -7.2456 84° East 458 527 37,000  Level FlightAware UK
04:49PM 51.7640 -7.2610 84° East 460 529 37,000  Level FlightAware
04:50PM 51.7730 -7.1200 84° East 461 531 37,000  Level FlightAware
04:50PM 51.7800 -6.9950 85° East 461 531 37,000  Level FlightAware
04:51PM 51.7664 -6.8357 85° East 456 525 37,000  Level FlightAware UK
04:51PM 51.7890 -6.8500 85° East 462 532 37,000  Level FlightAware
04:52PM 51.7970 -6.7050 85° East 463 533 37,000  Level FlightAware
04:53PM 51.7806 -6.5269 85° East 462 532 37,000  Level FlightAware UK
04:53PM 51.8010 -6.5540 85° East 459 528 37,000  Level FlightAware
04:53PM 51.7970 -6.4190 93° East 457 526 37,000  Level FlightAware
04:54PM 51.7900 -6.2840 95° East 456 525 37,000  Level FlightAware
04:55PM 51.7606 -6.1197 95° East 460 529 37,000  Level FlightAware UK
04:55PM 51.7810 -6.1450 95° East 458 527 37,000  Level FlightAware
04:55PM 51.7710 -6.0090 97° East 458 527 37,000  Level FlightAware
04:56PM 51.7395 -5.8145 97° East 458 527 37,000  Level FlightAware UK
04:56PM 51.7610 -5.8560 97° East 459 528 37,000  Level FlightAware
04:57PM 51.7325 -5.7126 97° East 458 527 37,000  Level FlightAware UK
04:57PM 51.7500 -5.7000 97° East 460 529 37,000  Level FlightAware
04:58PM 51.7410 -5.5610 96° East 461 531 37,000  Level FlightAware
04:58PM 51.7116 -5.4058 96° East 458 527 37,000  Level FlightAware UK
04:58PM 51.7310 -5.4230 96° East 463 533 37,000  Level FlightAware
04:59PM 51.7220 -5.3020 97° East 464 534 37,000  Level FlightAware
04:59PM 51.7120 -5.1640 97° East 464 534 37,000  Level FlightAware
05:00PM 51.6889 -5.0975 97° East 462 532 37,000  Level FlightAware UK
05:00PM 51.6810 -4.9941 97° East 466 536 37,000  Level FlightAware UK
05:00PM 51.6970 -4.9580 97° East 463 533 37,000  Level FlightAware
05:01PM 51.6642 -4.7685 97° East 464 534 37,000  Level FlightAware UK
05:01PM 51.6850 -4.8050 97° East 462 532 37,000  Level FlightAware
05:02PM 51.6740 -4.6630 97° East 462 532 37,000  Level FlightAware
05:03PM 51.6630 -4.5150 97° East 461 531 37,000  Level FlightAware
05:03PM 51.6400 -4.4620 97° East 462 532 37,000  Level FlightAware UK
05:03PM 51.6318 -4.3595 97° East 462 532 37,000  Level FlightAware UK
05:03PM 51.6520 -4.3760 97° East 461 531 37,000  Level FlightAware
05:04PM 51.6400 -4.2280 97° East 460 529 37,000  Level FlightAware
05:05PM 51.6066 -4.0546 97° East 460 529 37,000  Level FlightAware UK
05:05PM 51.6280 -4.0850 97° East 460 529 37,000  Level FlightAware
05:05PM 51.6170 -3.9480 97° East 461 531 37,000  Level FlightAware
05:06PM 51.6050 -3.8110 97° East 462 532 37,000  Level FlightAware
05:06PM 51.5809 -3.7497 97° East 458 527 37,000 -600 Level FlightAware UK
05:07PM 51.5719 -3.6470 97° East 462 532 36,700 -600 Descending FlightAware UK
05:07PM 51.5920 -3.6470 97° East 471 542 36,600 -1,200 Descending FlightAware
05:07PM 51.5820 -3.5330 98° East 478 550 35,800 -1,680 Descending FlightAware
05:08PM 51.5690 -3.3910 98° East 471 542 34,600 -2,040 Descending FlightAware
05:08PM 51.5441 -3.3329 98° East 464 534 34,300 -2,400 Descending FlightAware UK
05:09PM 51.5331 -3.2088 98° East 474 545 33,000 -2,160 Descending FlightAware UK
05:09PM 51.5530 -3.2030 98° East 475 547 32,600 -2,280 Descending FlightAware
05:10PM 51.5400 -3.0640 98° East 472 543 31,000 -2,520 Descending FlightAware
05:10PM 51.5038 -2.8946 98° East 474 545 29,400 -2,400 Descending FlightAware UK
05:10PM 51.5270 -2.9240 98° East 474 545 29,400 -2,160 Level FlightAware
05:11PM 51.5231 -2.8791 98° East 473 544 28,900 -2,580 Descending FlightAware ADS-B
05:11PM 51.5135 -2.7746 98° East 466 536 27,600 -2,460 Descending FlightAware ADS-B
05:12PM 51.5037 -2.6692 98° East 457 526 26,400 -2,460 Descending FlightAware ADS-B
05:12PM 51.4941 -2.5691 99° East 449 517 25,100 -2,520 Descending FlightAware ADS-B
05:13PM 51.4849 -2.4704 98° East 440 506 23,900 -2,460 Descending FlightAware ADS-B
05:13PM 51.4754 -2.3713 99° East 433 498 22,600 -2,460 Descending FlightAware ADS-B
05:14PM 51.4662 -2.2765 99° East 425 489 21,400 -2,460 Descending FlightAware ADS-B
05:14PM 51.4567 -2.1793 99° East 418 481 20,100 -2,460 Descending FlightAware ADS-B
05:15PM 51.4476 -2.0875 99° East 409 471 18,900 -2,280 Descending FlightAware ADS-B
05:15PM 51.4385 -1.9957 99° East 401 461 17,800 -2,220 Descending FlightAware ADS-B
05:16PM 51.4297 -1.9080 99° East 394 453 16,700 -2,100 Descending FlightAware ADS-B
05:16PM 51.4212 -1.8225 99° East 383 441 15,700 -1,920 Descending FlightAware ADS-B
05:17PM 51.4126 -1.7379 99° East 376 433 14,800 -1,500 Descending FlightAware ADS-B
05:17PM 51.4032 -1.6447 99° East 364 419 14,100 -900 Descending FlightAware ADS-B
05:18PM 51.3978 -1.5906 99° East 360 414 14,000 -120 Descending FlightAware ADS-B
05:18PM 51.3947 -1.5088 93° East 366 421 14,000 -420 Level FlightAware ADS-B
05:19PM 51.3911 -1.4258 94° East 368 423 13,600 -900 Descending FlightAware ADS-B
05:19PM 51.3870 -1.3470 95° East 362 417 13,100 -1,020 Descending FlightAware ADS-B
05:20PM 51.3824 -1.2674 95° East 362 417 12,600 -1,020 Descending FlightAware ADS-B
05:20PM 51.3776 -1.1876 95° East 360 414 12,100 -1,020 Descending FlightAware ADS-B
05:21PM 51.3729 -1.1083 95° East 355 409 11,600 -1,020 Descending FlightAware ADS-B
05:21PM 51.3683 -1.0289 95° East 351 404 11,100 -1,140 Descending FlightAware ADS-B
05:22PM 51.3638 -0.9525 95° East 344 396 10,500 -900 Descending FlightAware ADS-B
05:22PM 51.3594 -0.8772 95° East 340 391 10,200 -540 Descending FlightAware ADS-B
05:23PM 51.3547 -0.8030 96° East 328 377 10,000 -300 Descending FlightAware ADS-B
05:23PM 51.3527 -0.7672 95° East 314 361 10,000 -240 Level FlightAware ADS-B
05:23PM 51.3508 -0.7327 95° East 302 348 9,900 -600 Descending FlightAware ADS-B
05:23PM 51.3489 -0.6985 95° East 295 339 9,700 -1,020 Descending FlightAware ADS-B
05:24PM 51.3468 -0.6654 96° East 292 336 9,400 -1,020 Descending FlightAware ADS-B
05:24PM 51.3448 -0.6322 96° East 291 335 9,200 -600 Descending FlightAware ADS-B
05:24PM 51.3427 -0.6003 96° East 291 335 9,100 -420 Descending FlightAware ADS-B
05:24PM 51.3409 -0.5682 95° East 292 336 9,000 -660 Descending FlightAware ADS-B
05:25PM 51.3389 -0.5386 96° East 290 334 8,800 -1,080 Descending FlightAware ADS-B
05:25PM 51.3371 -0.5064 95° East 287 330 8,500 -900 Descending FlightAware ADS-B
05:25PM 51.3366 -0.4954 94° East 288 331 8,500 -720 Level FlightAware ADS-B
05:25PM 51.3365 -0.4882 91° East 289 333 8,400 -1,380 Descending FlightAware ADS-B
05:25PM 51.3372 -0.4770 84° East 291 335 8,300 -780 Descending FlightAware ADS-B
05:25PM 51.3382 -0.4703 77° East 292 336 8,300 -720 Level FlightAware ADS-B
05:25PM 51.3441 -0.4382 74° East 295 339 8,100 -900 Descending FlightAware ADS-B
05:26PM 51.3508 -0.4001 74° East 294 338 7,800 -900 Descending FlightAware ADS-B
05:26PM 51.3563 -0.3674 75° East 290 334 7,600 -780 Descending FlightAware ADS-B
05:26PM 51.3615 -0.3361 75° East 279 321 7,400 -600 Descending FlightAware ADS-B
05:26PM 51.3664 -0.3059 75° East 271 312 7,300 -600 Descending FlightAware ADS-B
05:27PM 51.3710 -0.2769 76° East 262 302 7,100 -600 Descending FlightAware ADS-B
05:27PM 51.3757 -0.2490 75° East 256 295 7,000 -420 Descending FlightAware ADS-B
05:27PM 51.3801 -0.2213 76° East 256 295 6,900 -840 Descending FlightAware ADS-B
05:27PM 51.3846 -0.1933 76° East 255 293 6,600 -1,020 Descending FlightAware ADS-B
05:28PM 51.3892 -0.1652 75° East 256 295 6,400 -1,020 Descending FlightAware ADS-B
05:28PM 51.3937 -0.1372 76° East 258 297 6,100 -1,200 Descending FlightAware ADS-B
05:28PM 51.3968 -0.1180 76° East 259 298 5,900 -1,200 Descending FlightAware ADS-B
05:28PM 51.3987 -0.1083 72° East 259 298 5,800 -720 Descending FlightAware ADS-B
05:28PM 51.4007 -0.1015 65° Northeast 258 297 5,800 -600 Level FlightAware ADS-B
05:28PM 51.4054 -0.0910 54° Northeast 257 296 5,700 -1,140 Descending FlightAware ADS-B
05:28PM 51.4085 -0.0862 44° Northeast 256 295 5,600 -900 Descending FlightAware ADS-B
05:29PM 51.4114 -0.0825 38° Northeast 254 292 5,600 -1,020 Level FlightAware ADS-B
05:29PM 51.4148 -0.0793 31° Northeast 251 289 5,500 -1,380 Descending FlightAware ADS-B
05:29PM 51.4210 -0.0752 22° Northeast 248 285 5,400 -420 Descending FlightAware ADS-B
05:29PM 51.4306 -0.0729 North 239 275 5,400 -480 Level FlightAware ADS-B
05:29PM 51.4364 -0.0730 360° North 236 272 5,300 -900 Descending FlightAware ADS-B
05:29PM 51.4536 -0.0733 359° North 225 259 5,100 -780 Descending FlightAware ADS-B
05:29PM 51.4691 -0.0733 360° North 215 247 4,900 -600 Descending FlightAware ADS-B
05:30PM 51.4746 -0.0733 360° North 210 242 4,900 -600 Level FlightAware ADS-B
05:30PM 51.4785 -0.0735 358° North 208 239 4,800 -780 Descending FlightAware ADS-B
05:30PM 51.4828 -0.0747 350° North 207 238 4,800  Level FlightAware ADS-B
05:30PM 51.4861 -0.0765 341° North 203 234 4,800 -780 Level FlightAware ADS-B
05:30PM 51.4893 -0.0795 330° Northwest 201 231 4,700 -900 Descending FlightAware ADS-B
05:30PM 51.4917 -0.0822 325° Northwest 197 227 4,700  Level FlightAware ADS-B
05:30PM 51.4941 -0.0864 313° West 195 224 4,700 -720 Level FlightAware ADS-B
05:30PM 51.4965 -0.0917 306° West 195 224 4,600 -720 Descending FlightAware ADS-B
05:31PM 51.5090 -0.1290 306° West 189 217 4,300 -900 Descending FlightAware
05:31PM 51.4781 -0.1103 306° West 196 226 4,100 -1,200 Descending FlightAware UK
05:31PM 51.5110 -0.1500 279° West 185 213 4,000 -840 Descending FlightAware
05:31PM 51.5110 -0.1800 270° West 181 208 3,600 -1,200 Descending FlightAware
05:32PM 51.5110 -0.2110 270° West 180 207 3,100 -1,080 Descending FlightAware
05:32PM 51.5110 -0.2350 270° West 171 197 2,900 -900 Descending FlightAware
05:32PM 51.5110 -0.2610 270° West 166 191 2,500 -1,080 Descending FlightAware
05:33PM 51.5110 -0.2970 270° West 164 189 2,000 -1,020 Descending FlightAware
05:33PM 51.5110 -0.3270 270° West 164 189 1,600 -960 Descending FlightAware
05:34PM 51.4778 -0.3565 270° West 144 166 900 -720 Descending FlightAware UK
05:34PM 51.5110 -0.3840 270° West 140 161 1,000 -720 Climbing FlightAware
05:34PM 51.4776 -0.3935 270° West 144 166 500 -600 Descending FlightAware UK
05:34PM 51.5110 -0.4110 270° West 139 160 700 -240 Climbing FlightAware
05:35PM 51.5110 -0.4390 270° West 138 159 400 -660 Descending FlightAware
05:35PM 51.5110 -0.4620 270° West 139 160 100 -360 Descending FlightAware
05:36PM 51.5110 -0.4850 270° West 139 160 100  Level FlightAware